createdAt,value
2018-10-16T00:01:03.377Z,10.33
2018-10-16T00:03:30.789Z,9.53
2018-10-16T00:05:58.183Z,10.83
2018-10-16T00:08:25.570Z,11.70
2018-10-16T00:10:53.436Z,11.00
2018-10-16T00:13:20.835Z,10.60
2018-10-16T00:15:48.184Z,10.60
2018-10-16T00:18:15.611Z,11.00
2018-10-16T00:20:42.956Z,10.43
2018-10-16T00:23:22.815Z,11.20
2018-10-16T00:25:50.661Z,10.20
2018-10-16T00:28:18.912Z,9.50
2018-10-16T00:30:46.747Z,10.80
2018-10-16T00:33:14.606Z,11.10
2018-10-16T00:35:43.189Z,11.20
2018-10-16T00:38:11.326Z,11.13
2018-10-16T00:40:39.197Z,10.90
2018-10-16T00:43:08.035Z,11.03
2018-10-16T00:45:58.429Z,11.50
2018-10-16T00:48:25.833Z,13.00
2018-10-16T00:50:53.211Z,11.93
2018-10-16T00:53:20.651Z,11.47
2018-10-16T00:55:48.055Z,11.30
2018-10-16T00:58:15.458Z,11.47
2018-10-16T01:00:42.986Z,11.37
2018-10-16T01:03:10.327Z,11.67
2018-10-16T01:05:37.822Z,11.97
2018-10-16T01:08:05.244Z,11.03
2018-10-16T01:10:32.618Z,12.23
2018-10-16T01:12:59.991Z,11.60
2018-10-16T01:15:27.360Z,11.53
2018-10-16T01:17:54.822Z,12.77
2018-10-16T01:20:22.250Z,11.40
2018-10-16T01:22:49.657Z,12.00
2018-10-16T01:25:17.078Z,10.77
2018-10-16T01:27:44.499Z,12.10
2018-10-16T01:30:11.896Z,11.97
2018-10-16T01:32:39.364Z,11.10
2018-10-16T01:35:07.512Z,11.57
2018-10-16T01:37:34.974Z,11.73
2018-10-16T01:40:02.362Z,12.40
2018-10-16T01:42:29.722Z,11.00
2018-10-16T01:44:57.237Z,11.97
2018-10-16T01:47:24.634Z,11.47
2018-10-16T01:49:52.078Z,11.57
2018-10-16T01:52:19.873Z,11.13
2018-10-16T01:54:47.260Z,11.10
2018-10-16T01:57:14.667Z,12.07
2018-10-16T01:59:42.453Z,12.30
2018-10-16T02:02:09.861Z,12.10
2018-10-16T02:04:37.299Z,11.70
2018-10-16T02:07:04.721Z,12.17
2018-10-16T02:09:32.122Z,12.67
2018-10-16T02:11:59.475Z,12.13
2018-10-16T02:14:26.942Z,12.60
2018-10-16T02:16:54.619Z,12.70
2018-10-16T02:19:22.013Z,12.90
2018-10-16T02:21:49.487Z,12.10
2018-10-16T02:24:16.859Z,12.57
2018-10-16T02:26:44.276Z,12.70
2018-10-16T02:29:11.756Z,13.53
2018-10-16T02:31:39.402Z,12.00
2018-10-16T02:34:06.912Z,12.20
2018-10-16T02:36:34.308Z,12.30
2018-10-16T02:39:02.742Z,12.73
2018-10-16T02:44:03.378Z,13.50
2018-10-16T02:46:30.799Z,12.43
2018-10-16T02:48:58.366Z,11.70
2018-10-16T02:51:25.770Z,12.10
2018-10-16T02:53:53.165Z,13.40
2018-10-16T02:56:20.609Z,12.50
2018-10-16T02:58:47.970Z,12.13
2018-10-16T03:01:15.379Z,11.07
2018-10-16T03:03:42.893Z,11.30
2018-10-16T03:06:10.376Z,12.13
2018-10-16T03:08:38.412Z,11.67
2018-10-16T03:11:06.081Z,11.67
2018-10-16T03:13:33.478Z,11.50
2018-10-16T03:16:01.341Z,11.60
2018-10-16T03:18:28.786Z,12.90
2018-10-16T03:20:56.185Z,10.93
2018-10-16T03:23:24.037Z,11.43
2018-10-16T03:25:51.487Z,11.50
2018-10-16T03:28:19.080Z,11.30
2018-10-16T03:30:46.596Z,10.50
2018-10-16T03:33:14.153Z,12.20
2018-10-16T03:35:41.624Z,11.20
2018-10-16T03:38:09.065Z,11.33
2018-10-16T03:40:36.546Z,11.50
2018-10-16T03:43:04.287Z,11.07
2018-10-16T03:45:31.703Z,10.97
2018-10-16T03:47:59.130Z,10.70
2018-10-16T03:50:26.969Z,11.63
2018-10-16T03:52:54.491Z,12.10
2018-10-16T03:55:21.897Z,10.60
2018-10-16T03:57:49.258Z,11.93
2018-10-16T04:00:17.049Z,11.20
2018-10-16T04:02:44.426Z,11.43
2018-10-16T04:05:11.868Z,9.93
2018-10-16T04:07:40.121Z,10.83
2018-10-16T04:10:07.713Z,10.77
2018-10-16T04:12:35.158Z,10.03
2018-10-16T04:15:02.668Z,11.73
2018-10-16T04:17:30.148Z,11.43
2018-10-16T04:19:57.554Z,11.57
2018-10-16T04:22:24.980Z,12.03
2018-10-16T04:24:52.468Z,11.07
2018-10-16T04:27:19.976Z,11.63
2018-10-16T04:29:47.764Z,11.43
2018-10-16T04:32:15.217Z,11.93
2018-10-16T04:34:42.660Z,12.77
2018-10-16T04:37:10.079Z,12.83
2018-10-16T04:39:37.425Z,10.50
2018-10-16T04:42:05.059Z,10.70
2018-10-16T04:44:32.500Z,11.80
2018-10-16T04:46:59.915Z,12.20
2018-10-16T04:49:27.317Z,11.93
2018-10-16T04:51:54.806Z,11.67
2018-10-16T04:54:22.251Z,12.43
2018-10-16T04:56:49.724Z,11.40
2018-10-16T04:59:17.108Z,12.53
2018-10-16T05:01:44.490Z,12.90
2018-10-16T05:04:12.069Z,13.10
2018-10-16T05:06:39.414Z,12.43
2018-10-16T05:09:07.621Z,12.60
2018-10-16T05:11:39.272Z,12.37
2018-10-16T05:14:07.049Z,12.57
2018-10-16T05:19:13.200Z,13.77
2018-10-16T05:21:40.560Z,14.00
2018-10-16T05:24:11.958Z,13.30
2018-10-16T05:26:39.832Z,14.53
2018-10-16T05:29:07.572Z,14.40
2018-10-16T05:31:35.516Z,15.87
2018-10-16T05:34:03.102Z,14.87
2018-10-16T05:36:30.462Z,14.53
2018-10-16T05:38:57.985Z,12.80
2018-10-16T05:41:25.494Z,13.90
2018-10-16T05:43:52.860Z,13.73
2018-10-16T05:46:20.339Z,13.17
2018-10-16T05:48:47.718Z,12.77
2018-10-16T05:51:15.080Z,12.53
2018-10-16T05:53:42.411Z,12.80
2018-10-16T05:56:09.769Z,12.83
2018-10-16T05:58:37.128Z,13.33
2018-10-16T06:01:04.727Z,14.50
2018-10-16T06:03:32.028Z,13.83
2018-10-16T06:05:59.361Z,14.20
2018-10-16T06:08:26.890Z,13.37
2018-10-16T06:10:54.339Z,12.60
2018-10-16T06:13:22.032Z,14.83
2018-10-16T06:15:49.390Z,14.20
2018-10-16T06:18:16.723Z,14.13
2018-10-16T06:20:44.065Z,13.13
2018-10-16T06:23:11.820Z,13.30
2018-10-16T06:25:39.237Z,13.07
2018-10-16T06:28:16.317Z,13.40
2018-10-16T06:30:43.626Z,12.53
2018-10-16T06:33:11.139Z,13.10
2018-10-16T06:35:38.459Z,13.03
2018-10-16T06:38:06.197Z,13.27
2018-10-16T06:40:33.567Z,13.07
2018-10-16T06:43:01.182Z,12.70
2018-10-16T06:45:28.567Z,13.40
2018-10-16T06:47:56.099Z,15.13
2018-10-16T06:50:23.356Z,14.40
2018-10-16T06:52:50.696Z,14.20
2018-10-16T06:55:18.164Z,14.20
2018-10-16T06:57:45.421Z,13.43
2018-10-16T07:00:12.799Z,14.73
2018-10-16T07:02:40.092Z,14.63
2018-10-16T07:05:08.013Z,15.50
2018-10-16T07:10:09.641Z,16.57
2018-10-16T07:12:37.205Z,14.50
2018-10-16T07:15:04.999Z,14.60
2018-10-16T07:17:32.360Z,15.40
2018-10-16T07:19:59.698Z,15.30
2018-10-16T07:22:27.102Z,15.07
2018-10-16T07:24:54.477Z,14.53
2018-10-16T07:27:22.083Z,14.60
2018-10-16T07:29:49.431Z,14.60
2018-10-16T07:32:16.721Z,15.50
2018-10-16T07:34:44.097Z,13.20
2018-10-16T07:37:11.429Z,14.53
2018-10-16T07:39:38.751Z,14.10
2018-10-16T07:42:06.485Z,13.20
2018-10-16T07:44:33.848Z,14.20
2018-10-16T07:47:01.129Z,13.93
2018-10-16T07:49:28.561Z,13.37
2018-10-16T07:51:55.927Z,13.13
2018-10-16T07:54:23.287Z,14.77
2018-10-16T07:56:50.676Z,14.47
2018-10-16T07:59:18.143Z,14.07
2018-10-16T08:01:45.537Z,15.07
2018-10-16T08:04:12.877Z,13.43
2018-10-16T08:06:40.262Z,13.60
2018-10-16T08:09:09.922Z,13.77
2018-10-16T08:11:39.284Z,14.40
2018-10-16T08:14:07.118Z,13.80
2018-10-16T08:16:34.528Z,13.00
2018-10-16T08:19:01.926Z,12.40
2018-10-16T08:21:29.269Z,13.30
2018-10-16T08:23:56.635Z,14.07
2018-10-16T08:26:23.978Z,13.90
2018-10-16T08:28:53.781Z,13.77
2018-10-16T08:31:21.195Z,14.90
2018-10-16T08:33:48.548Z,15.30
2018-10-16T08:36:15.974Z,15.27
2018-10-16T08:38:50.670Z,17.87
2018-10-16T08:41:18.403Z,16.10
2018-10-16T08:43:52.590Z,17.03
2018-10-16T08:46:26.093Z,16.90
2018-10-16T08:48:59.394Z,18.87
2018-10-16T08:51:34.895Z,16.07
2018-10-16T08:54:02.266Z,15.07
2018-10-16T08:56:29.744Z,19.23
2018-10-16T08:58:57.125Z,18.53
2018-10-16T09:01:24.439Z,19.77
2018-10-16T09:03:52.547Z,22.93
2018-10-16T09:06:19.997Z,20.90
2018-10-16T09:08:47.410Z,20.03
2018-10-16T09:11:14.976Z,17.30
2018-10-16T09:13:42.404Z,17.30
2018-10-16T09:16:09.946Z,17.70
2018-10-16T09:18:37.724Z,16.80
2018-10-16T09:21:05.128Z,16.40
2018-10-16T09:23:32.521Z,13.57
2018-10-16T09:25:59.928Z,14.80
2018-10-16T09:28:27.281Z,14.87
2018-10-16T09:30:54.678Z,14.03
2018-10-16T09:33:22.066Z,16.80
2018-10-16T09:35:49.446Z,15.80
2018-10-16T09:38:16.834Z,17.63
2018-10-16T09:40:44.191Z,17.43
2018-10-16T09:43:11.523Z,18.03
2018-10-16T09:45:38.907Z,25.07
2018-10-16T09:48:06.251Z,17.47
2018-10-16T09:50:33.802Z,18.30
2018-10-16T09:53:01.258Z,19.63
2018-10-16T09:55:28.613Z,18.80
2018-10-16T09:57:56.018Z,17.80
2018-10-16T10:02:35.559Z,17.97
2018-10-16T10:05:02.942Z,19.10
2018-10-16T10:07:30.368Z,19.17
2018-10-16T10:09:57.765Z,18.63
2018-10-16T10:12:25.405Z,16.50
2018-10-16T10:14:52.761Z,20.37
2018-10-16T10:17:20.149Z,17.87
2018-10-16T10:19:47.951Z,18.00
2018-10-16T10:22:15.379Z,18.63
2018-10-16T10:24:42.713Z,17.70
2018-10-16T10:27:10.163Z,17.47
2018-10-16T10:29:37.743Z,19.37
2018-10-16T10:32:05.833Z,18.47
2018-10-16T10:34:33.136Z,17.47
2018-10-16T10:37:00.483Z,16.13
2018-10-16T10:39:27.865Z,14.60
2018-10-16T10:41:55.234Z,13.30
2018-10-16T10:44:22.637Z,12.93
2018-10-16T10:46:50.036Z,12.20
2018-10-16T10:49:17.371Z,10.20
2018-10-16T10:51:45.015Z,10.63
2018-10-16T10:54:12.750Z,11.43
2018-10-16T10:56:40.143Z,11.73
2018-10-16T10:59:07.472Z,10.33
2018-10-16T11:01:34.903Z,10.70
2018-10-16T11:04:02.264Z,9.90
2018-10-16T11:06:29.672Z,10.17
2018-10-16T11:08:57.122Z,10.57
2018-10-16T11:11:32.443Z,10.40
2018-10-16T11:13:59.872Z,9.33
2018-10-16T11:16:27.617Z,7.67
2018-10-16T11:18:55.097Z,9.07
2018-10-16T11:21:22.473Z,8.50
2018-10-16T11:23:49.866Z,9.20
2018-10-16T11:26:17.345Z,8.33
2018-10-16T11:28:45.895Z,8.07
2018-10-16T11:31:13.221Z,9.87
2018-10-16T11:33:40.703Z,8.60
2018-10-16T11:36:08.017Z,8.03
2018-10-16T11:38:35.469Z,9.57
2018-10-16T11:41:02.979Z,9.03
2018-10-16T11:43:30.331Z,8.70
2018-10-16T11:45:57.710Z,9.27
2018-10-16T11:48:25.136Z,9.00
2018-10-16T11:50:52.478Z,9.50
2018-10-16T11:53:19.865Z,9.33
2018-10-16T11:55:47.872Z,8.70
2018-10-16T11:58:15.323Z,9.53
2018-10-16T12:00:42.644Z,8.47
2018-10-16T12:03:10.275Z,8.90
2018-10-16T12:05:37.592Z,8.57
2018-10-16T12:08:05.083Z,9.50
2018-10-16T12:10:32.432Z,9.70
2018-10-16T12:12:59.793Z,8.30
2018-10-16T12:15:27.418Z,8.97
2018-10-16T12:18:00.854Z,9.60
2018-10-16T12:20:37.050Z,9.57
2018-10-16T12:23:04.599Z,8.60
2018-10-16T12:25:32.730Z,8.17
2018-10-16T12:28:00.057Z,8.20
2018-10-16T12:30:27.411Z,9.37
2018-10-16T12:32:54.818Z,7.97
2018-10-16T12:35:22.210Z,9.07
2018-10-16T12:37:49.535Z,8.10
2018-10-16T12:40:16.993Z,7.57
2018-10-16T12:42:44.271Z,8.27
2018-10-16T12:45:11.664Z,8.80
2018-10-16T12:47:38.964Z,8.77
2018-10-16T12:50:06.511Z,8.20
2018-10-16T12:52:33.822Z,7.73
2018-10-16T12:55:01.115Z,7.70
2018-10-16T12:57:28.512Z,8.20
2018-10-16T12:59:55.901Z,7.97
2018-10-16T13:02:23.204Z,7.60
2018-10-16T13:04:50.544Z,7.47
2018-10-16T13:07:29.003Z,8.37
2018-10-16T13:09:56.382Z,8.40
2018-10-16T13:12:23.840Z,7.00
2018-10-16T13:14:51.213Z,8.47
2018-10-16T13:17:18.701Z,7.50
2018-10-16T13:19:46.099Z,8.10
2018-10-16T13:22:13.417Z,7.60
2018-10-16T13:24:40.826Z,7.40
2018-10-16T13:27:09.124Z,8.23
2018-10-16T13:29:36.668Z,8.50
2018-10-16T13:32:04.405Z,7.80
2018-10-16T13:34:31.754Z,8.53
2018-10-16T13:36:59.263Z,8.70
2018-10-16T13:39:26.505Z,8.00
2018-10-16T13:41:53.854Z,8.90
2018-10-16T13:44:28.079Z,9.10
2018-10-16T13:46:55.413Z,8.40
2018-10-16T13:49:22.767Z,8.17
2018-10-16T13:51:50.694Z,8.47
2018-10-16T13:54:17.993Z,7.73
2018-10-16T13:56:45.368Z,7.50
2018-10-16T13:59:12.797Z,7.97
2018-10-16T14:01:40.260Z,8.73
2018-10-16T14:04:07.630Z,7.63
2018-10-16T14:06:34.943Z,8.27
2018-10-16T14:09:02.413Z,7.80
2018-10-16T14:11:29.857Z,7.90
2018-10-16T14:13:57.236Z,7.73
2018-10-16T14:16:24.561Z,7.60
2018-10-16T14:18:51.976Z,7.13
2018-10-16T14:21:19.309Z,8.07
2018-10-16T14:23:46.699Z,7.97
2018-10-16T14:26:14.151Z,7.87
2018-10-16T14:28:41.683Z,7.90
2018-10-16T14:31:08.976Z,7.23
2018-10-16T14:33:36.357Z,7.60
2018-10-16T14:36:03.734Z,7.90
2018-10-16T14:38:31.118Z,8.10
2018-10-16T14:40:58.423Z,7.53
2018-10-16T14:43:25.757Z,7.30
2018-10-16T14:45:53.103Z,8.07
2018-10-16T14:48:20.409Z,8.73
2018-10-16T14:50:47.838Z,8.17
2018-10-16T14:53:15.236Z,7.87
2018-10-16T14:55:42.557Z,9.03
2018-10-16T14:58:09.945Z,9.40
2018-10-16T15:00:37.637Z,9.33
2018-10-16T15:03:05.123Z,9.17
2018-10-16T15:05:32.531Z,9.27
2018-10-16T15:07:59.980Z,8.70
2018-10-16T15:10:27.405Z,10.10
2018-10-16T15:12:54.764Z,9.37
2018-10-16T15:15:22.655Z,9.73
2018-10-16T15:17:50.024Z,9.70
2018-10-16T15:20:17.477Z,9.23
2018-10-16T15:22:44.806Z,8.97
2018-10-16T15:25:12.115Z,9.03
2018-10-16T15:27:39.469Z,11.60
2018-10-16T15:30:07.665Z,11.70
2018-10-16T15:32:34.979Z,10.80
2018-10-16T15:35:02.375Z,10.27
2018-10-16T15:37:29.732Z,9.33
2018-10-16T15:39:57.125Z,9.17
2018-10-16T15:42:24.534Z,9.03
2018-10-16T15:44:51.894Z,9.27
2018-10-16T15:47:19.273Z,9.20
2018-10-16T15:49:46.579Z,9.10
2018-10-16T15:52:13.987Z,9.53
2018-10-16T15:54:41.319Z,8.50
2018-10-16T15:57:08.691Z,9.33
2018-10-16T15:59:36.082Z,10.40
2018-10-16T16:02:04.591Z,10.30
2018-10-16T16:04:32.133Z,9.87
2018-10-16T16:06:59.463Z,9.40
2018-10-16T16:09:26.875Z,9.10
2018-10-16T16:11:54.597Z,9.13
2018-10-16T16:14:21.881Z,9.37
2018-10-16T16:16:49.162Z,9.10
2018-10-16T16:19:16.517Z,9.13
2018-10-16T16:21:43.834Z,9.40
2018-10-16T16:24:11.218Z,9.50
2018-10-16T16:26:38.574Z,9.83
2018-10-16T16:29:06.001Z,9.70
2018-10-16T16:31:33.420Z,9.13
2018-10-16T16:34:00.984Z,9.53
2018-10-16T16:36:28.386Z,9.53
2018-10-16T16:38:55.712Z,9.80
2018-10-16T16:41:23.089Z,12.03
2018-10-16T16:43:50.517Z,10.10
2018-10-16T16:46:17.783Z,10.60
2018-10-16T16:48:45.130Z,10.10
2018-10-16T16:51:12.885Z,9.53
2018-10-16T16:53:40.228Z,9.90
2018-10-16T16:56:07.968Z,9.30
2018-10-16T16:58:35.482Z,10.17
2018-10-16T17:01:02.898Z,9.60
2018-10-16T17:03:30.248Z,9.87
2018-10-16T17:05:57.586Z,10.63
2018-10-16T17:08:25.014Z,10.23
2018-10-16T17:10:52.515Z,10.20
2018-10-16T17:13:19.850Z,10.50
2018-10-16T17:15:47.323Z,10.57
2018-10-16T17:18:14.663Z,10.60
2018-10-16T17:20:42.129Z,9.70
2018-10-16T17:23:09.484Z,10.20
2018-10-16T17:25:37.094Z,10.40
2018-10-16T17:28:04.323Z,10.60
2018-10-16T17:30:31.556Z,10.60
2018-10-16T17:32:59.001Z,10.53
2018-10-16T17:35:26.300Z,11.60
2018-10-16T17:37:54.078Z,10.47
2018-10-16T17:40:21.418Z,11.60
2018-10-16T17:42:48.873Z,12.60
2018-10-16T17:45:17.218Z,11.40
2018-10-16T17:47:44.662Z,10.53
2018-10-16T17:50:13.256Z,11.10
2018-10-16T17:52:41.063Z,10.50
2018-10-16T17:55:09.132Z,12.77
2018-10-16T17:57:36.990Z,12.27
2018-10-16T18:00:04.368Z,11.70
2018-10-16T18:02:31.675Z,12.07
2018-10-16T18:04:59.093Z,11.60
2018-10-16T18:07:26.444Z,12.43
2018-10-16T18:09:53.809Z,11.00
2018-10-16T18:12:21.197Z,12.33
2018-10-16T18:14:48.543Z,13.20
2018-10-16T18:17:15.872Z,14.10
2018-10-16T18:19:43.173Z,14.33
2018-10-16T18:22:10.565Z,13.30
2018-10-16T18:24:37.936Z,12.33
2018-10-16T18:27:05.385Z,12.50
2018-10-16T18:29:32.682Z,11.93
2018-10-16T18:32:00.035Z,12.40
2018-10-16T18:34:27.549Z,12.43
2018-10-16T18:36:54.963Z,11.97
2018-10-16T18:39:22.344Z,11.97
2018-10-16T18:41:49.757Z,12.13
2018-10-16T18:44:17.113Z,10.57
2018-10-16T18:46:44.815Z,10.90
2018-10-16T18:49:12.178Z,11.90
2018-10-16T18:51:39.897Z,12.10
2018-10-16T18:54:07.236Z,12.00
2018-10-16T18:56:34.579Z,12.77
2018-10-16T18:59:02.024Z,11.67
2018-10-16T19:01:29.370Z,11.57
2018-10-16T19:03:56.750Z,12.50
2018-10-16T19:06:24.099Z,12.70
2018-10-16T19:08:51.475Z,12.80
2018-10-16T19:11:18.846Z,12.87
2018-10-16T19:13:46.170Z,12.43
2018-10-16T19:16:13.453Z,12.17
2018-10-16T19:18:40.778Z,12.50
2018-10-16T19:21:08.385Z,12.47
2018-10-16T19:23:35.681Z,13.10
2018-10-16T19:26:03.052Z,12.00
2018-10-16T19:28:30.554Z,12.87
2018-10-16T19:30:58.406Z,13.03
2018-10-16T19:33:25.746Z,12.57
2018-10-16T19:35:53.126Z,11.40
2018-10-16T19:38:20.571Z,13.90
2018-10-16T19:40:48.007Z,13.43
2018-10-16T19:43:15.366Z,14.20
2018-10-16T19:45:43.158Z,13.23
2018-10-16T19:48:10.457Z,14.30
2018-10-16T19:50:38.237Z,14.80
2018-10-16T19:53:05.620Z,14.13
2018-10-16T19:55:32.917Z,13.70
2018-10-16T19:58:00.315Z,14.13
2018-10-16T20:00:27.640Z,14.30
2018-10-16T20:02:55.009Z,14.77
2018-10-16T20:05:22.474Z,14.10
2018-10-16T20:07:49.995Z,13.27
2018-10-16T20:10:17.468Z,14.53
2018-10-16T20:12:44.978Z,13.80
2018-10-16T20:15:12.935Z,15.30
2018-10-16T20:17:40.424Z,13.83
2018-10-16T20:20:08.451Z,14.90
2018-10-16T20:22:35.822Z,14.70
2018-10-16T20:25:03.538Z,15.40
2018-10-16T20:27:31.073Z,16.40
2018-10-16T20:29:58.491Z,15.43
2018-10-16T20:32:25.890Z,15.20
2018-10-16T20:34:53.310Z,15.33
2018-10-16T20:37:20.705Z,14.83
2018-10-16T20:39:48.022Z,15.67
2018-10-16T20:42:15.464Z,15.40
2018-10-16T20:44:42.846Z,14.63
2018-10-16T20:47:10.388Z,17.07
2018-10-16T20:49:37.753Z,15.33
2018-10-16T20:52:05.274Z,16.07
2018-10-16T20:54:33.957Z,16.23
2018-10-16T20:57:01.622Z,16.50
2018-10-16T20:59:29.161Z,16.70
2018-10-16T21:01:56.763Z,17.07
2018-10-16T21:04:24.322Z,15.83
2018-10-16T21:06:51.906Z,17.10
2018-10-16T21:09:19.219Z,16.77
2018-10-16T21:11:46.557Z,15.63
2018-10-16T21:14:13.947Z,15.90
2018-10-16T21:16:41.415Z,15.77
2018-10-16T21:19:08.884Z,15.70
2018-10-16T21:21:36.210Z,16.40
2018-10-16T21:24:03.699Z,14.47
2018-10-16T21:26:31.163Z,15.20
2018-10-16T21:28:58.598Z,15.10
2018-10-16T21:31:25.990Z,14.40
2018-10-16T21:33:53.424Z,14.63
2018-10-16T21:36:20.842Z,14.80
2018-10-16T21:38:48.246Z,15.23
2018-10-16T21:41:15.700Z,13.70
2018-10-16T21:43:43.080Z,13.40
2018-10-16T21:46:10.682Z,13.20
2018-10-16T21:48:38.105Z,13.93
2018-10-16T21:51:05.601Z,14.83
2018-10-16T21:53:33.080Z,14.33
2018-10-16T21:56:00.657Z,14.73
2018-10-16T21:58:28.172Z,16.97
2018-10-16T22:01:01.458Z,15.33
2018-10-16T22:03:28.852Z,13.87
2018-10-16T22:05:56.338Z,14.10
2018-10-16T22:08:23.972Z,13.90
2018-10-16T22:10:51.953Z,14.57
2018-10-16T22:13:19.770Z,14.80
2018-10-16T22:15:47.610Z,15.20
2018-10-16T22:18:15.509Z,14.43
2018-10-16T22:20:43.205Z,15.63
2018-10-16T22:23:11.155Z,15.50
2018-10-16T22:25:38.935Z,15.60
2018-10-16T22:28:11.905Z,15.57
2018-10-16T22:33:28.642Z,14.70
2018-10-16T22:35:56.412Z,15.53
2018-10-16T22:38:33.980Z,15.23
2018-10-16T22:41:12.463Z,14.13
2018-10-16T22:43:48.107Z,13.33
2018-10-16T22:46:42.803Z,15.33
2018-10-16T22:49:10.661Z,14.37
2018-10-16T22:51:37.956Z,16.53
2018-10-16T22:54:05.338Z,15.20
2018-10-16T22:56:32.972Z,13.90
2018-10-16T22:59:00.332Z,14.90
2018-10-16T23:01:27.983Z,15.57
2018-10-16T23:03:55.328Z,14.60
2018-10-16T23:06:22.687Z,15.60
2018-10-16T23:08:50.097Z,14.70
2018-10-16T23:11:17.542Z,14.57
2018-10-16T23:13:45.126Z,15.57
2018-10-16T23:16:12.450Z,14.53
2018-10-16T23:18:39.760Z,15.10
2018-10-16T23:21:07.330Z,16.00
2018-10-16T23:23:34.687Z,16.47
2018-10-16T23:26:02.899Z,14.63
2018-10-16T23:28:30.720Z,15.40
2018-10-16T23:30:58.054Z,15.00
2018-10-16T23:33:25.451Z,15.13
2018-10-16T23:35:52.801Z,14.97
2018-10-16T23:38:20.185Z,15.27
2018-10-16T23:40:47.548Z,15.40
2018-10-16T23:43:14.927Z,14.50
2018-10-16T23:45:42.233Z,14.83
2018-10-16T23:48:09.914Z,15.07
2018-10-16T23:50:37.244Z,13.63
2018-10-16T23:53:04.661Z,13.90
2018-10-16T23:55:32.033Z,15.63
2018-10-16T23:57:59.361Z,14.30
